JESUS16 KLSV-KLSV
Flight info
| Callsign | JESUS16 |
|---|---|
| Flight time | 0h 57m |
| Altitude | 36000 |
| Route | KLSV KSAN KLSV |
| Aircraft | F16/H-SDE3FGHIRWY/LB1 |
Departure
| Time | 2026-04-20 00:47 |
|---|---|
| Airport | Nellis Air Force Base (KLSV) |
Arrival
| Time | 2026-04-20 01:44 |
|---|---|
| Airport | Nellis Air Force Base (KLSV) |
| Time | Latitude | Longitude | Altitude | Speed | Heading |
|---|---|---|---|---|---|
| 2026-04-20 00:18 | 36.22739 | -115.04792 | 1870 ft | 0 kts | 311° |
| 2026-04-20 00:40 | 36.22746 | -115.04797 | 1865 ft | 1 kts | 3° |
| 2026-04-20 00:40 | 36.22746 | -115.04796 | 1865 ft | 0 kts | 26° |
| 2026-04-20 00:41 | 36.22751 | -115.04787 | 1865 ft | 2 kts | 71° |
| 2026-04-20 00:41 | 36.22752 | -115.04783 | 1865 ft | 0 kts | 89° |
| 2026-04-20 00:42 | 36.22752 | -115.04780 | 1865 ft | 3 kts | 90° |
| 2026-04-20 00:42 | 36.22734 | -115.04752 | 1865 ft | 0 kts | 131° |
| 2026-04-20 00:46 | 36.22708 | -115.04715 | 1867 ft | 15 kts | 130° |
| 2026-04-20 00:46 | 36.22731 | -115.04606 | 1869 ft | 18 kts | 40° |
| 2026-04-20 00:47 | 36.23320 | -115.03961 | 1909 ft | 210 kts | 41° |
| 2026-04-20 00:47 | 36.24628 | -115.02540 | 3054 ft | 255 kts | 42° |
| 2026-04-20 00:47 | 36.25917 | -115.01125 | 4416 ft | 248 kts | 44° |
| 2026-04-20 00:47 | 36.27179 | -114.99724 | 4571 ft | 235 kts | 44° |
| 2026-04-20 00:48 | 36.28363 | -114.98406 | 4625 ft | 233 kts | 48° |
| 2026-04-20 00:48 | 36.29526 | -114.96584 | 6036 ft | 287 kts | 54° |
| 2026-04-20 00:48 | 36.30792 | -114.94529 | 7823 ft | 319 kts | 54° |
| 2026-04-20 00:48 | 36.32216 | -114.92199 | 8316 ft | 359 kts | 54° |
| 2026-04-20 00:49 | 36.33252 | -114.89415 | 8323 ft | 358 kts | 97° |
| 2026-04-20 00:49 | 36.32269 | -114.86642 | 8193 ft | 351 kts | 143° |
| 2026-04-20 00:49 | 36.30882 | -114.85692 | 8507 ft | 346 kts | 159° |
| 2026-04-20 00:49 | 36.27763 | -114.84016 | 8912 ft | 384 kts | 156° |
| 2026-04-20 00:50 | 36.26145 | -114.83015 | 9093 ft | 402 kts | 154° |
| 2026-04-20 00:50 | 36.23602 | -114.81303 | 9384 ft | 429 kts | 153° |
| 2026-04-20 00:50 | 36.20948 | -114.79411 | 9671 ft | 448 kts | 152° |
| 2026-04-20 00:50 | 36.17894 | -114.77194 | 9323 ft | 327 kts | 153° |
| 2026-04-20 00:51 | 36.15992 | -114.76504 | 8903 ft | 259 kts | 171° |
| 2026-04-20 00:51 | 36.14825 | -114.76259 | 8465 ft | 231 kts | 173° |
| 2026-04-20 00:51 | 36.13351 | -114.76193 | 7875 ft | 213 kts | 182° |
| 2026-04-20 00:51 | 36.11859 | -114.76440 | 7273 ft | 223 kts | 199° |
| 2026-04-20 00:52 | 36.10372 | -114.77147 | 6599 ft | 234 kts | 201° |
| 2026-04-20 00:52 | 36.08875 | -114.77882 | 6360 ft | 226 kts | 201° |
| 2026-04-20 00:52 | 36.07466 | -114.78642 | 6319 ft | 217 kts | 205° |
| 2026-04-20 00:52 | 36.06450 | -114.79974 | 6094 ft | 222 kts | 253° |
| 2026-04-20 00:53 | 36.06502 | -114.82022 | 5235 ft | 250 kts | 274° |
| 2026-04-20 00:53 | 36.06538 | -114.84112 | 5045 ft | 247 kts | 268° |
| 2026-04-20 00:53 | 36.06552 | -114.86374 | 4390 ft | 294 kts | 270° |
| 2026-04-20 00:53 | 36.06608 | -114.89192 | 3903 ft | 362 kts | 271° |
| 2026-04-20 00:54 | 36.07224 | -114.93088 | 3537 ft | 532 kts | 284° |
| 2026-04-20 00:54 | 36.08081 | -114.97953 | 3025 ft | 577 kts | 275° |
| 2026-04-20 00:54 | 36.07822 | -115.01976 | 3069 ft | 596 kts | 262° |
| 2026-04-20 00:54 | 36.07447 | -115.08188 | 2475 ft | 765 kts | 269° |
| 2026-04-20 00:55 | 36.07778 | -115.15081 | 3034 ft | 775 kts | 307° |
| 2026-04-20 00:55 | 36.11572 | -115.18693 | 9689 ft | 587 kts | 342° |
| 2026-04-20 00:55 | 36.15415 | -115.19574 | 17824 ft | 521 kts | 350° |
| 2026-04-20 00:55 | 36.19102 | -115.20306 | 19999 ft | 533 kts | 350° |
| 2026-04-20 00:56 | 36.22611 | -115.20999 | 20111 ft | 487 kts | 350° |
| 2026-04-20 00:56 | 36.25599 | -115.22207 | 20243 ft | 424 kts | 326° |
| 2026-04-20 00:56 | 36.27680 | -115.24452 | 20326 ft | 373 kts | 304° |
| 2026-04-20 00:56 | 36.28755 | -115.27061 | 20335 ft | 318 kts | 279° |
| 2026-04-20 00:57 | 36.28964 | -115.29596 | 20295 ft | 279 kts | 270° |
| 2026-04-20 00:57 | 36.29069 | -115.31787 | 20207 ft | 258 kts | 270° |
| 2026-04-20 00:57 | 36.29181 | -115.33991 | 20069 ft | 244 kts | 270° |
| 2026-04-20 00:57 | 36.29290 | -115.36030 | 19916 ft | 237 kts | 270° |
| 2026-04-20 00:58 | 36.29381 | -115.37672 | 19784 ft | 233 kts | 270° |
| 2026-04-20 00:58 | 36.29494 | -115.39694 | 19487 ft | 240 kts | 270° |
| 2026-04-20 00:58 | 36.29943 | -115.41615 | 18700 ft | 286 kts | 326° |
| 2026-04-20 00:58 | 36.32080 | -115.41957 | 18130 ft | 341 kts | 16° |
| 2026-04-20 00:59 | 36.34299 | -115.41164 | 17855 ft | 321 kts | 17° |
| 2026-04-20 00:59 | 36.36365 | -115.40414 | 17545 ft | 298 kts | 17° |
| 2026-04-20 00:59 | 36.38300 | -115.40180 | 17432 ft | 274 kts | 352° |
| 2026-04-20 00:59 | 36.40065 | -115.40067 | 17251 ft | 259 kts | 34° |
| 2026-04-20 01:00 | 36.41273 | -115.38459 | 16704 ft | 258 kts | 60° |
| 2026-04-20 01:00 | 36.42160 | -115.36531 | 16237 ft | 258 kts | 66° |
| 2026-04-20 01:00 | 36.42971 | -115.34542 | 15868 ft | 260 kts | 67° |
| 2026-04-20 01:00 | 36.43666 | -115.32435 | 15672 ft | 267 kts | 89° |
| 2026-04-20 01:01 | 36.43808 | -115.30101 | 15474 ft | 276 kts | 90° |
| 2026-04-20 01:01 | 36.43930 | -115.27699 | 15357 ft | 281 kts | 90° |
| 2026-04-20 01:01 | 36.44039 | -115.25272 | 15298 ft | 283 kts | 90° |
| 2026-04-20 01:01 | 36.44146 | -115.22827 | 15230 ft | 283 kts | 91° |
| 2026-04-20 01:02 | 36.44252 | -115.20417 | 15192 ft | 283 kts | 90° |
| 2026-04-20 01:02 | 36.44360 | -115.17981 | 15170 ft | 283 kts | 90° |
| 2026-04-20 01:02 | 36.44470 | -115.15531 | 15143 ft | 283 kts | 90° |
| 2026-04-20 01:02 | 36.44577 | -115.13167 | 15142 ft | 283 kts | 90° |
| 2026-04-20 01:03 | 36.44687 | -115.10734 | 15149 ft | 281 kts | 90° |
| 2026-04-20 01:03 | 36.44798 | -115.08312 | 15173 ft | 280 kts | 90° |
| 2026-04-20 01:03 | 36.44909 | -115.05904 | 15210 ft | 279 kts | 90° |
| 2026-04-20 01:03 | 36.45020 | -115.03504 | 15250 ft | 277 kts | 90° |
| 2026-04-20 01:04 | 36.45132 | -115.01123 | 15316 ft | 275 kts | 90° |
| 2026-04-20 01:04 | 36.45241 | -114.98760 | 15386 ft | 273 kts | 90° |
| 2026-04-20 01:04 | 36.45348 | -114.96474 | 15469 ft | 272 kts | 90° |
| 2026-04-20 01:04 | 36.45457 | -114.94142 | 15574 ft | 270 kts | 90° |
| 2026-04-20 01:05 | 36.45534 | -114.92498 | 15659 ft | 268 kts | 91° |
| 2026-04-20 01:05 | 36.45645 | -114.90168 | 15792 ft | 266 kts | 90° |
| 2026-04-20 01:05 | 36.45754 | -114.87890 | 15937 ft | 263 kts | 90° |
| 2026-04-20 01:05 | 36.45864 | -114.85627 | 16103 ft | 260 kts | 90° |
| 2026-04-20 01:06 | 36.45973 | -114.83394 | 16289 ft | 257 kts | 90° |
| 2026-04-20 01:06 | 36.46084 | -114.81198 | 16494 ft | 254 kts | 90° |
| 2026-04-20 01:06 | 36.46197 | -114.79014 | 16727 ft | 251 kts | 90° |
| 2026-04-20 01:06 | 36.46309 | -114.76870 | 16977 ft | 248 kts | 90° |
| 2026-04-20 01:07 | 36.46423 | -114.74731 | 17103 ft | 252 kts | 90° |
| 2026-04-20 01:07 | 36.46534 | -114.72566 | 17111 ft | 257 kts | 90° |
| 2026-04-20 01:07 | 36.46646 | -114.70339 | 17155 ft | 259 kts | 90° |
| 2026-04-20 01:07 | 36.46759 | -114.68094 | 17230 ft | 260 kts | 90° |
| 2026-04-20 01:08 | 36.46871 | -114.65854 | 17303 ft | 259 kts | 90° |
| 2026-04-20 01:08 | 36.46982 | -114.63621 | 17407 ft | 258 kts | 90° |
| 2026-04-20 01:08 | 36.47093 | -114.61389 | 17415 ft | 261 kts | 90° |
| 2026-04-20 01:08 | 36.47204 | -114.59083 | 17040 ft | 276 kts | 90° |
| 2026-04-20 01:09 | 36.47313 | -114.56634 | 16530 ft | 291 kts | 91° |
| 2026-04-20 01:09 | 36.47420 | -114.54082 | 16042 ft | 301 kts | 91° |
| 2026-04-20 01:09 | 36.47528 | -114.51437 | 15572 ft | 310 kts | 91° |
| 2026-04-20 01:09 | 36.47635 | -114.48723 | 15046 ft | 317 kts | 91° |
| 2026-04-20 01:10 | 36.47768 | -114.46318 | 13405 ft | 245 kts | 91° |
| 2026-04-20 01:10 | 36.47931 | -114.42335 | 9310 ft | 239 kts | 97° |
| 2026-04-20 01:10 | 36.47726 | -114.40221 | 7513 ft | 254 kts | 107° |
| 2026-04-20 01:11 | 36.47169 | -114.38129 | 6102 ft | 261 kts | 123° |
| 2026-04-20 01:11 | 36.45890 | -114.36550 | 5164 ft | 258 kts | 160° |
| 2026-04-20 01:11 | 36.44177 | -114.36438 | 4518 ft | 247 kts | 199° |
| 2026-04-20 01:11 | 36.42643 | -114.37321 | 3930 ft | 248 kts | 208° |
| 2026-04-20 01:12 | 36.41133 | -114.38435 | 3350 ft | 251 kts | 212° |
| 2026-04-20 01:12 | 36.39682 | -114.39589 | 2824 ft | 249 kts | 195° |
| 2026-04-20 01:12 | 36.37974 | -114.39747 | 2336 ft | 247 kts | 181° |
| 2026-04-20 01:12 | 36.36231 | -114.39789 | 1714 ft | 255 kts | 180° |
| 2026-04-20 01:13 | 36.35436 | -114.39699 | 1602 ft | 250 kts | 172° |
| 2026-04-20 01:13 | 36.34752 | -114.39600 | 1544 ft | 251 kts | 173° |
| 2026-04-20 01:13 | 36.33013 | -114.39365 | 1301 ft | 248 kts | 174° |
| 2026-04-20 01:13 | 36.31118 | -114.39156 | 1309 ft | 347 kts | 175° |
| 2026-04-20 01:14 | 36.27906 | -114.39479 | 1229 ft | 570 kts | 203° |
| 2026-04-20 01:14 | 36.24344 | -114.40397 | 1570 ft | 597 kts | 173° |
| 2026-04-20 01:14 | 36.19858 | -114.41408 | 1472 ft | 678 kts | 193° |
| 2026-04-20 01:14 | 36.15536 | -114.42697 | 1574 ft | 611 kts | 199° |
| 2026-04-20 01:15 | 36.13148 | -114.46145 | 1795 ft | 521 kts | 274° |
| 2026-04-20 01:15 | 36.14132 | -114.50222 | 1494 ft | 510 kts | 286° |
| 2026-04-20 01:15 | 36.15114 | -114.54884 | 1390 ft | 619 kts | 283° |
| 2026-04-20 01:15 | 36.13905 | -114.59519 | 1363 ft | 564 kts | 229° |
| 2026-04-20 01:16 | 36.14050 | -114.63086 | 1211 ft | 442 kts | 270° |
| 2026-04-20 01:16 | 36.12282 | -114.65925 | 1336 ft | 428 kts | 225° |
| 2026-04-20 01:16 | 36.10502 | -114.68580 | 1267 ft | 303 kts | 234° |
| 2026-04-20 01:16 | 36.09418 | -114.70507 | 1326 ft | 265 kts | 234° |
| 2026-04-20 01:17 | 36.08444 | -114.72099 | 1988 ft | 195 kts | 217° |
| 2026-04-20 01:17 | 36.07753 | -114.72718 | 2119 ft | 164 kts | 214° |
| 2026-04-20 01:17 | 36.06701 | -114.73587 | 2629 ft | 132 kts | 211° |
| 2026-04-20 01:17 | 36.06215 | -114.73977 | 2821 ft | 122 kts | 211° |
| 2026-04-20 01:18 | 36.05360 | -114.74608 | 2869 ft | 197 kts | 173° |
| 2026-04-20 01:18 | 36.04053 | -114.73247 | 2132 ft | 279 kts | 120° |
| 2026-04-20 01:18 | 36.02557 | -114.72822 | 1756 ft | 258 kts | 216° |
| 2026-04-20 01:18 | 36.02395 | -114.72965 | 1675 ft | 260 kts | 216° |
| 2026-04-20 01:19 | 36.02225 | -114.73117 | 1595 ft | 262 kts | 216° |
| 2026-04-20 01:19 | 36.00425 | -114.74294 | 965 ft | 351 kts | 167° |
| 2026-04-20 01:19 | 35.97875 | -114.74204 | 1039 ft | 382 kts | 152° |
| 2026-04-20 01:20 | 35.96664 | -114.73589 | 7217 ft | 156 kts | 189° |
| 2026-04-20 01:20 | 35.96620 | -114.74737 | 6597 ft | 252 kts | 354° |
| 2026-04-20 01:20 | 35.98474 | -114.75549 | 5659 ft | 273 kts | 304° |
| 2026-04-20 01:20 | 35.98590 | -114.77425 | 4843 ft | 234 kts | 242° |
| 2026-04-20 01:21 | 35.97980 | -114.79280 | 4308 ft | 231 kts | 247° |
| 2026-04-20 01:21 | 35.97434 | -114.81127 | 4007 ft | 221 kts | 258° |
| 2026-04-20 01:21 | 35.97401 | -114.82924 | 4022 ft | 200 kts | 273° |
| 2026-04-20 01:21 | 35.97560 | -114.84566 | 3978 ft | 188 kts | 269° |
| 2026-04-20 01:22 | 35.97568 | -114.86127 | 3912 ft | 191 kts | 318° |
| 2026-04-20 01:22 | 35.98657 | -114.86018 | 3807 ft | 194 kts | 65° |
| 2026-04-20 01:22 | 35.98465 | -114.84590 | 3838 ft | 179 kts | 159° |
| 2026-04-20 01:22 | 35.97395 | -114.85026 | 3855 ft | 186 kts | 249° |
| 2026-04-20 01:23 | 35.97934 | -114.86316 | 3510 ft | 213 kts | 359° |
| 2026-04-20 01:23 | 35.98866 | -114.85340 | 3037 ft | 225 kts | 64° |
| 2026-04-20 01:23 | 35.99213 | -114.84510 | 2878 ft | 230 kts | 62° |
| 2026-04-20 01:24 | 36.00058 | -114.82802 | 2654 ft | 225 kts | 45° |
| 2026-04-20 01:24 | 36.01315 | -114.81738 | 2587 ft | 213 kts | 30° |
| 2026-04-20 01:24 | 36.02578 | -114.80848 | 2538 ft | 205 kts | 29° |
| 2026-04-20 01:24 | 36.03801 | -114.79973 | 2515 ft | 199 kts | 31° |
| 2026-04-20 01:25 | 36.05028 | -114.79088 | 2819 ft | 211 kts | 31° |
| 2026-04-20 01:25 | 36.06309 | -114.78165 | 3146 ft | 222 kts | 29° |
| 2026-04-20 01:25 | 36.07819 | -114.77975 | 2968 ft | 228 kts | 349° |
| 2026-04-20 01:25 | 36.09307 | -114.78409 | 3311 ft | 215 kts | 345° |
| 2026-04-20 01:26 | 36.10776 | -114.78929 | 3883 ft | 224 kts | 344° |
| 2026-04-20 01:26 | 36.12244 | -114.79524 | 4048 ft | 219 kts | 338° |
| 2026-04-20 01:26 | 36.13612 | -114.80279 | 4177 ft | 214 kts | 333° |
| 2026-04-20 01:26 | 36.14932 | -114.81173 | 4221 ft | 225 kts | 330° |
| 2026-04-20 01:27 | 36.16354 | -114.82182 | 4324 ft | 244 kts | 329° |
| 2026-04-20 01:27 | 36.17858 | -114.83249 | 4491 ft | 254 kts | 330° |
| 2026-04-20 01:27 | 36.19408 | -114.84344 | 4701 ft | 262 kts | 330° |
| 2026-04-20 01:27 | 36.21019 | -114.85482 | 4955 ft | 267 kts | 330° |
| 2026-04-20 01:28 | 36.22665 | -114.86646 | 5100 ft | 280 kts | 330° |
| 2026-04-20 01:28 | 36.24365 | -114.87850 | 5107 ft | 280 kts | 329° |
| 2026-04-20 01:28 | 36.26187 | -114.88433 | 5009 ft | 268 kts | 8° |
| 2026-04-20 01:28 | 36.27938 | -114.87797 | 4935 ft | 261 kts | 19° |
| 2026-04-20 01:29 | 36.29714 | -114.87043 | 4583 ft | 283 kts | 20° |
| 2026-04-20 01:29 | 36.31504 | -114.86291 | 5083 ft | 258 kts | 18° |
| 2026-04-20 01:29 | 36.33171 | -114.86105 | 5583 ft | 243 kts | 340° |
| 2026-04-20 01:29 | 36.34449 | -114.87493 | 5280 ft | 257 kts | 309° |
| 2026-04-20 01:30 | 36.35640 | -114.89254 | 5088 ft | 273 kts | 308° |
| 2026-04-20 01:30 | 36.36843 | -114.91051 | 5271 ft | 268 kts | 310° |
| 2026-04-20 01:30 | 36.38252 | -114.92479 | 5600 ft | 256 kts | 324° |
| 2026-04-20 01:30 | 36.39685 | -114.93689 | 6058 ft | 242 kts | 323° |
| 2026-04-20 01:31 | 36.41042 | -114.94837 | 6497 ft | 231 kts | 321° |
| 2026-04-20 01:31 | 36.41906 | -114.96395 | 6760 ft | 222 kts | 288° |
| 2026-04-20 01:31 | 36.42558 | -114.98171 | 6824 ft | 234 kts | 308° |
| 2026-04-20 01:31 | 36.44058 | -114.99048 | 6633 ft | 254 kts | 359° |
| 2026-04-20 01:32 | 36.45619 | -114.98293 | 6780 ft | 248 kts | 50° |
| 2026-04-20 01:32 | 36.46116 | -114.96361 | 6790 ft | 239 kts | 106° |
| 2026-04-20 01:32 | 36.45172 | -114.94921 | 6818 ft | 250 kts | 162° |
| 2026-04-20 01:32 | 36.43465 | -114.95305 | 6757 ft | 274 kts | 220° |
| 2026-04-20 01:33 | 36.42671 | -114.97544 | 6564 ft | 309 kts | 271° |
| 2026-04-20 01:33 | 36.43675 | -114.99928 | 6663 ft | 339 kts | 323° |
| 2026-04-20 01:33 | 36.45974 | -115.00362 | 6691 ft | 356 kts | 21° |
| 2026-04-20 01:33 | 36.47647 | -114.98190 | 6764 ft | 369 kts | 65° |
| 2026-04-20 01:34 | 36.49378 | -114.96071 | 7792 ft | 348 kts | 15° |
| 2026-04-20 01:34 | 36.51667 | -114.96541 | 8153 ft | 344 kts | 317° |
| 2026-04-20 01:34 | 36.52495 | -114.99064 | 8399 ft | 320 kts | 255° |
| 2026-04-20 01:34 | 36.51001 | -115.00629 | 8283 ft | 305 kts | 173° |
| 2026-04-20 01:35 | 36.49602 | -114.98895 | 8393 ft | 313 kts | 99° |
| 2026-04-20 01:35 | 36.49994 | -114.96423 | 8680 ft | 296 kts | 105° |
| 2026-04-20 01:35 | 36.48597 | -114.94805 | 8256 ft | 298 kts | 165° |
| 2026-04-20 01:35 | 36.46490 | -114.94080 | 8279 ft | 340 kts | 168° |
| 2026-04-20 01:36 | 36.44214 | -114.93479 | 8347 ft | 379 kts | 171° |
| 2026-04-20 01:36 | 36.41460 | -114.92942 | 8461 ft | 410 kts | 173° |
| 2026-04-20 01:36 | 36.39439 | -114.92527 | 8156 ft | 209 kts | 172° |
| 2026-04-20 01:36 | 36.38154 | -114.92220 | 7788 ft | 213 kts | 172° |
| 2026-04-20 01:37 | 36.36780 | -114.92460 | 7637 ft | 208 kts | 238° |
| 2026-04-20 01:37 | 36.36525 | -114.94233 | 7440 ft | 214 kts | 263° |
| 2026-04-20 01:37 | 36.36438 | -114.96083 | 7327 ft | 214 kts | 263° |
| 2026-04-20 01:37 | 36.36355 | -114.97883 | 7253 ft | 210 kts | 262° |
| 2026-04-20 01:38 | 36.36104 | -114.99633 | 7163 ft | 204 kts | 240° |
| 2026-04-20 01:38 | 36.35241 | -115.01004 | 7007 ft | 206 kts | 226° |
| 2026-04-20 01:38 | 36.34249 | -115.02391 | 6760 ft | 226 kts | 226° |
| 2026-04-20 01:38 | 36.33167 | -115.03903 | 6709 ft | 240 kts | 226° |
| 2026-04-20 01:39 | 36.32059 | -115.05451 | 6732 ft | 239 kts | 226° |
| 2026-04-20 01:39 | 36.30962 | -115.06982 | 6757 ft | 235 kts | 227° |
| 2026-04-20 01:39 | 36.29898 | -115.08472 | 6769 ft | 227 kts | 226° |
| 2026-04-20 01:39 | 36.28855 | -115.09933 | 6725 ft | 224 kts | 226° |
| 2026-04-20 01:40 | 36.27840 | -115.11358 | 6757 ft | 218 kts | 226° |
| 2026-04-20 01:40 | 36.26844 | -115.12756 | 6830 ft | 215 kts | 227° |
| 2026-04-20 01:40 | 36.25608 | -115.13568 | 6724 ft | 204 kts | 178° |
| 2026-04-20 01:40 | 36.24257 | -115.12875 | 5930 ft | 226 kts | 139° |
| 2026-04-20 01:41 | 36.23133 | -115.11395 | 5038 ft | 246 kts | 133° |
| 2026-04-20 01:41 | 36.21961 | -115.09807 | 4310 ft | 252 kts | 132° |
| 2026-04-20 01:41 | 36.20935 | -115.08022 | 3892 ft | 257 kts | 104° |
| 2026-04-20 01:41 | 36.21482 | -115.05988 | 2808 ft | 262 kts | 47° |
| 2026-04-20 01:42 | 36.23045 | -115.04241 | 2442 ft | 366 kts | 41° |
| 2026-04-20 01:42 | 36.25464 | -115.02425 | 3422 ft | 360 kts | 337° |
| 2026-04-20 01:42 | 36.26012 | -115.04226 | 4005 ft | 183 kts | 219° |
| 2026-04-20 01:42 | 36.25108 | -115.05222 | 3627 ft | 179 kts | 220° |
| 2026-04-20 01:43 | 36.24204 | -115.06391 | 3596 ft | 186 kts | 228° |
| 2026-04-20 01:43 | 36.23306 | -115.07531 | 3534 ft | 188 kts | 201° |
| 2026-04-20 01:43 | 36.22086 | -115.07573 | 3512 ft | 177 kts | 146° |
| 2026-04-20 01:43 | 36.21388 | -115.06367 | 3092 ft | 178 kts | 79° |
| 2026-04-20 01:44 | 36.22212 | -115.05163 | 2185 ft | 189 kts | 40° |
| 2026-04-20 01:44 | 36.23063 | -115.04256 | 1871 ft | 104 kts | 41° |
| 2026-04-20 01:44 | 36.23322 | -115.03973 | 1872 ft | 6 kts | 41° |
| 2026-04-20 01:44 | 36.23356 | -115.03937 | 1872 ft | 35 kts | 41° |
| 2026-04-20 01:45 | 36.23491 | -115.03951 | 1872 ft | 25 kts | 309° |
| 2026-04-20 01:45 | 36.23410 | -115.04114 | 1871 ft | 26 kts | 219° |
| 2026-04-20 01:45 | 36.23280 | -115.04264 | 1871 ft | 25 kts | 220° |
| 2026-04-20 01:45 | 36.23149 | -115.04405 | 1871 ft | 25 kts | 222° |
| 2026-04-20 01:46 | 36.23018 | -115.04543 | 1873 ft | 25 kts | 220° |
| 2026-04-20 01:46 | 36.22903 | -115.04672 | 1872 ft | 13 kts | 236° |
| 2026-04-20 01:46 | 36.22924 | -115.04716 | 1872 ft | 8 kts | 310° |
| 2026-04-20 01:46 | 36.22919 | -115.04745 | 1872 ft | 3 kts | 221° |
| 2026-04-20 01:47 | 36.22913 | -115.04752 | 1872 ft | 0 kts | 221° |